sensor_id;sensor_type;location;lat;lon;timestamp;temperature;humidity
13944;DHT22;7044;53.286;8.534;2022-11-15T00:00:55;7.60;99.90
13944;DHT22;7044;53.286;8.534;2022-11-15T00:03:24;7.50;99.90
13944;DHT22;7044;53.286;8.534;2022-11-15T00:05:51;7.60;99.90
13944;DHT22;7044;53.286;8.534;2022-11-15T00:10:54;7.50;99.90
13944;DHT22;7044;53.286;8.534;2022-11-15T00:13:21;7.50;99.90
13944;DHT22;7044;53.286;8.534;2022-11-15T00:15:49;7.50;99.90
13944;DHT22;7044;53.286;8.534;2022-11-15T00:18:17;7.40;99.90
13944;DHT22;7044;53.286;8.534;2022-11-15T00:20:44;7.40;99.90
13944;DHT22;7044;53.286;8.534;2022-11-15T00:23:11;7.40;99.90
13944;DHT22;7044;53.286;8.534;2022-11-15T00:25:37;7.40;99.90
13944;DHT22;7044;53.286;8.534;2022-11-15T00:28:04;7.40;99.90
13944;DHT22;7044;53.286;8.534;2022-11-15T00:30:31;7.40;99.90
13944;DHT22;7044;53.286;8.534;2022-11-15T00:33:03;7.40;99.90
13944;DHT22;7044;53.286;8.534;2022-11-15T00:35:31;7.30;99.90
13944;DHT22;7044;53.286;8.534;2022-11-15T00:37:59;7.30;99.90
13944;DHT22;7044;53.286;8.534;2022-11-15T00:40:26;7.20;99.90
13944;DHT22;7044;53.286;8.534;2022-11-15T00:42:52;7.20;99.90
13944;DHT22;7044;53.286;8.534;2022-11-15T00:45:19;7.20;99.90
13944;DHT22;7044;53.286;8.534;2022-11-15T00:47:46;7.20;99.90
13944;DHT22;7044;53.286;8.534;2022-11-15T00:50:15;7.10;99.90
13944;DHT22;7044;53.286;8.534;2022-11-15T00:52:42;7.10;99.90
13944;DHT22;7044;53.286;8.534;2022-11-15T00:55:09;7.10;99.90
13944;DHT22;7044;53.286;8.534;2022-11-15T00:57:39;7.10;99.90
13944;DHT22;7044;53.286;8.534;2022-11-15T01:00:07;7.10;99.90
13944;DHT22;7044;53.286;8.534;2022-11-15T01:02:34;7.20;99.90
13944;DHT22;7044;53.286;8.534;2022-11-15T01:05:01;7.20;99.90
13944;DHT22;7044;53.286;8.534;2022-11-15T01:07:30;7.20;99.90
13944;DHT22;7044;53.286;8.534;2022-11-15T01:09:57;7.20;99.90
13944;DHT22;7044;53.286;8.534;2022-11-15T01:12:24;7.20;99.90
13944;DHT22;7044;53.286;8.534;2022-11-15T01:14:50;7.20;99.90
13944;DHT22;7044;53.286;8.534;2022-11-15T01:17:17;7.20;99.90
13944;DHT22;7044;53.286;8.534;2022-11-15T01:19:44;7.20;99.90
13944;DHT22;7044;53.286;8.534;2022-11-15T01:22:11;7.20;99.90
13944;DHT22;7044;53.286;8.534;2022-11-15T01:24:39;7.10;99.90
13944;DHT22;7044;53.286;8.534;2022-11-15T01:27:06;7.10;99.90
13944;DHT22;7044;53.286;8.534;2022-11-15T01:29:33;7.10;99.90
13944;DHT22;7044;53.286;8.534;2022-11-15T01:32:00;7.10;99.90
13944;DHT22;7044;53.286;8.534;2022-11-15T01:34:27;7.10;99.90
13944;DHT22;7044;53.286;8.534;2022-11-15T01:36:53;7.00;99.90
13944;DHT22;7044;53.286;8.534;2022-11-15T01:39:20;7.00;99.90
13944;DHT22;7044;53.286;8.534;2022-11-15T01:41:48;7.00;99.90
13944;DHT22;7044;53.286;8.534;2022-11-15T01:44:41;7.00;99.90
13944;DHT22;7044;53.286;8.534;2022-11-15T01:47:12;6.90;99.90
13944;DHT22;7044;53.286;8.534;2022-11-15T01:49:47;6.90;99.90
13944;DHT22;7044;53.286;8.534;2022-11-15T01:52:19;7.00;99.90
13944;DHT22;7044;53.286;8.534;2022-11-15T01:54:47;6.80;99.90
13944;DHT22;7044;53.286;8.534;2022-11-15T01:57:16;6.80;99.90
13944;DHT22;7044;53.286;8.534;2022-11-15T01:59:44;6.60;99.90
13944;DHT22;7044;53.286;8.534;2022-11-15T02:02:12;6.60;99.90
13944;DHT22;7044;53.286;8.534;2022-11-15T02:04:41;6.60;99.90
13944;DHT22;7044;53.286;8.534;2022-11-15T02:07:10;6.60;99.90
13944;DHT22;7044;53.286;8.534;2022-11-15T02:09:38;6.50;99.90
13944;DHT22;7044;53.286;8.534;2022-11-15T02:12:07;6.50;99.90
13944;DHT22;7044;53.286;8.534;2022-11-15T02:14:38;6.50;99.90
13944;DHT22;7044;53.286;8.534;2022-11-15T02:17:21;6.40;99.90
13944;DHT22;7044;53.286;8.534;2022-11-15T02:20:14;6.50;99.90
13944;DHT22;7044;53.286;8.534;2022-11-15T02:22:57;6.50;99.90
13944;DHT22;7044;53.286;8.534;2022-11-15T02:25:38;6.50;99.90
13944;DHT22;7044;53.286;8.534;2022-11-15T02:28:41;6.40;99.90
13944;DHT22;7044;53.286;8.534;2022-11-15T02:31:16;6.40;99.90
13944;DHT22;7044;53.286;8.534;2022-11-15T02:33:52;6.40;99.90
13944;DHT22;7044;53.286;8.534;2022-11-15T02:36:29;6.40;99.90
13944;DHT22;7044;53.286;8.534;2022-11-15T02:39:02;6.40;99.90
13944;DHT22;7044;53.286;8.534;2022-11-15T02:41:38;6.50;99.90
13944;DHT22;7044;53.286;8.534;2022-11-15T02:44:11;6.60;99.90
13944;DHT22;7044;53.286;8.534;2022-11-15T02:46:44;6.60;99.90
13944;DHT22;7044;53.286;8.534;2022-11-15T02:49:33;6.70;99.90
13944;DHT22;7044;53.286;8.534;2022-11-15T02:52:00;6.80;99.90
13944;DHT22;7044;53.286;8.534;2022-11-15T02:54:29;6.90;99.90
13944;DHT22;7044;53.286;8.534;2022-11-15T02:57:01;6.90;99.90
13944;DHT22;7044;53.286;8.534;2022-11-15T02:59:43;7.00;99.90
13944;DHT22;7044;53.286;8.534;2022-11-15T03:02:21;7.10;99.90
13944;DHT22;7044;53.286;8.534;2022-11-15T03:04:54;6.90;99.90
13944;DHT22;7044;53.286;8.534;2022-11-15T03:07:26;7.30;99.90
13944;DHT22;7044;53.286;8.534;2022-11-15T03:10:01;7.30;99.90
13944;DHT22;7044;53.286;8.534;2022-11-15T03:12:36;7.40;99.90
13944;DHT22;7044;53.286;8.534;2022-11-15T03:15:07;7.50;99.90
13944;DHT22;7044;53.286;8.534;2022-11-15T03:17:40;7.50;99.90
13944;DHT22;7044;53.286;8.534;2022-11-15T03:20:11;7.60;99.90
13944;DHT22;7044;53.286;8.534;2022-11-15T03:22:42;7.60;99.90
13944;DHT22;7044;53.286;8.534;2022-11-15T03:25:13;7.70;99.90
13944;DHT22;7044;53.286;8.534;2022-11-15T03:27:45;7.70;99.90
13944;DHT22;7044;53.286;8.534;2022-11-15T03:30:13;7.80;99.90
13944;DHT22;7044;53.286;8.534;2022-11-15T03:32:46;7.80;99.90
13944;DHT22;7044;53.286;8.534;2022-11-15T03:35:18;7.90;99.90
13944;DHT22;7044;53.286;8.534;2022-11-15T03:37:51;7.90;99.90
13944;DHT22;7044;53.286;8.534;2022-11-15T03:40:24;8.00;99.90
13944;DHT22;7044;53.286;8.534;2022-11-15T03:43:00;8.00;99.90
13944;DHT22;7044;53.286;8.534;2022-11-15T03:45:32;8.10;99.90
13944;DHT22;7044;53.286;8.534;2022-11-15T03:48:07;8.10;99.90
13944;DHT22;7044;53.286;8.534;2022-11-15T03:50:37;8.10;99.90
13944;DHT22;7044;53.286;8.534;2022-11-15T03:53:04;8.20;99.90
13944;DHT22;7044;53.286;8.534;2022-11-15T03:55:32;8.20;99.90
13944;DHT22;7044;53.286;8.534;2022-11-15T03:58:00;8.20;99.90
13944;DHT22;7044;53.286;8.534;2022-11-15T04:00:27;8.20;99.90
13944;DHT22;7044;53.286;8.534;2022-11-15T04:02:54;8.30;99.90
13944;DHT22;7044;53.286;8.534;2022-11-15T04:05:23;8.30;99.90
13944;DHT22;7044;53.286;8.534;2022-11-15T04:07:49;8.30;99.90
13944;DHT22;7044;53.286;8.534;2022-11-15T04:10:16;8.30;99.90
13944;DHT22;7044;53.286;8.534;2022-11-15T04:12:45;8.40;99.90
13944;DHT22;7044;53.286;8.534;2022-11-15T04:15:17;8.40;99.90
13944;DHT22;7044;53.286;8.534;2022-11-15T04:17:46;8.40;99.90
13944;DHT22;7044;53.286;8.534;2022-11-15T04:20:15;8.40;99.90
13944;DHT22;7044;53.286;8.534;2022-11-15T04:23:02;8.50;99.90
13944;DHT22;7044;53.286;8.534;2022-11-15T04:25:48;8.50;99.90
13944;DHT22;7044;53.286;8.534;2022-11-15T04:28:15;8.60;99.90
13944;DHT22;7044;53.286;8.534;2022-11-15T04:30:42;8.60;99.90
13944;DHT22;7044;53.286;8.534;2022-11-15T04:33:09;8.60;99.90
13944;DHT22;7044;53.286;8.534;2022-11-15T04:35:36;8.70;99.90
13944;DHT22;7044;53.286;8.534;2022-11-15T04:38:06;8.70;99.90
13944;DHT22;7044;53.286;8.534;2022-11-15T04:40:32;8.70;99.90
13944;DHT22;7044;53.286;8.534;2022-11-15T04:42:59;8.80;99.90
13944;DHT22;7044;53.286;8.534;2022-11-15T04:45:26;8.80;99.90
13944;DHT22;7044;53.286;8.534;2022-11-15T04:47:53;8.80;99.90
13944;DHT22;7044;53.286;8.534;2022-11-15T04:50:20;8.80;99.90
13944;DHT22;7044;53.286;8.534;2022-11-15T04:52:51;8.90;99.90
13944;DHT22;7044;53.286;8.534;2022-11-15T04:55:19;8.90;99.90
13944;DHT22;7044;53.286;8.534;2022-11-15T04:57:46;8.90;99.90
13944;DHT22;7044;53.286;8.534;2022-11-15T05:00:15;8.90;99.90
13944;DHT22;7044;53.286;8.534;2022-11-15T05:02:43;8.90;99.90
13944;DHT22;7044;53.286;8.534;2022-11-15T05:05:27;8.90;99.90
13944;DHT22;7044;53.286;8.534;2022-11-15T05:07:54;8.90;99.90
13944;DHT22;7044;53.286;8.534;2022-11-15T05:10:22;8.90;99.90
13944;DHT22;7044;53.286;8.534;2022-11-15T05:12:49;8.90;99.90
13944;DHT22;7044;53.286;8.534;2022-11-15T05:15:17;8.90;99.90
13944;DHT22;7044;53.286;8.534;2022-11-15T05:17:44;8.90;99.90
13944;DHT22;7044;53.286;8.534;2022-11-15T05:20:11;8.90;99.90
13944;DHT22;7044;53.286;8.534;2022-11-15T05:22:38;8.90;99.90
13944;DHT22;7044;53.286;8.534;2022-11-15T05:25:06;8.90;99.90
13944;DHT22;7044;53.286;8.534;2022-11-15T05:27:34;8.90;99.90
13944;DHT22;7044;53.286;8.534;2022-11-15T05:30:01;8.90;99.90
13944;DHT22;7044;53.286;8.534;2022-11-15T05:32:28;8.90;99.90
13944;DHT22;7044;53.286;8.534;2022-11-15T05:34:55;9.00;99.90
13944;DHT22;7044;53.286;8.534;2022-11-15T05:37:22;9.00;99.90
13944;DHT22;7044;53.286;8.534;2022-11-15T05:39:49;9.00;99.90
13944;DHT22;7044;53.286;8.534;2022-11-15T05:42:16;9.00;99.90
13944;DHT22;7044;53.286;8.534;2022-11-15T05:44:46;9.00;99.90
13944;DHT22;7044;53.286;8.534;2022-11-15T05:47:17;9.00;99.90
13944;DHT22;7044;53.286;8.534;2022-11-15T05:49:49;9.10;99.90
13944;DHT22;7044;53.286;8.534;2022-11-15T05:52:18;9.10;99.90
13944;DHT22;7044;53.286;8.534;2022-11-15T05:54:46;9.10;99.90
13944;DHT22;7044;53.286;8.534;2022-11-15T05:57:13;9.10;99.90
13944;DHT22;7044;53.286;8.534;2022-11-15T05:59:41;9.10;99.90
13944;DHT22;7044;53.286;8.534;2022-11-15T06:02:10;9.20;99.90
13944;DHT22;7044;53.286;8.534;2022-11-15T06:04:37;9.20;99.90
13944;DHT22;7044;53.286;8.534;2022-11-15T06:07:04;9.20;99.90
13944;DHT22;7044;53.286;8.534;2022-11-15T06:09:30;9.20;99.90
13944;DHT22;7044;53.286;8.534;2022-11-15T06:11:57;9.20;99.90
13944;DHT22;7044;53.286;8.534;2022-11-15T06:14:24;9.20;99.90
13944;DHT22;7044;53.286;8.534;2022-11-15T06:16:51;9.20;99.90
13944;DHT22;7044;53.286;8.534;2022-11-15T06:19:19;9.20;99.90
13944;DHT22;7044;53.286;8.534;2022-11-15T06:21:46;9.20;99.90
13944;DHT22;7044;53.286;8.534;2022-11-15T06:24:13;9.30;99.90
13944;DHT22;7044;53.286;8.534;2022-11-15T06:26:40;9.30;99.90
13944;DHT22;7044;53.286;8.534;2022-11-15T06:29:06;9.30;99.90
13944;DHT22;7044;53.286;8.534;2022-11-15T06:31:33;9.30;99.90
13944;DHT22;7044;53.286;8.534;2022-11-15T06:34:00;9.30;99.90
13944;DHT22;7044;53.286;8.534;2022-11-15T06:36:29;9.30;99.90
13944;DHT22;7044;53.286;8.534;2022-11-15T06:38:56;9.30;99.90
13944;DHT22;7044;53.286;8.534;2022-11-15T06:41:23;9.30;99.90
13944;DHT22;7044;53.286;8.534;2022-11-15T06:43:50;9.40;99.90
13944;DHT22;7044;53.286;8.534;2022-11-15T06:46:17;9.40;99.90
13944;DHT22;7044;53.286;8.534;2022-11-15T06:48:43;9.40;99.90
13944;DHT22;7044;53.286;8.534;2022-11-15T06:51:10;9.40;99.90
13944;DHT22;7044;53.286;8.534;2022-11-15T06:53:38;9.50;99.90
13944;DHT22;7044;53.286;8.534;2022-11-15T06:56:06;9.50;99.90
13944;DHT22;7044;53.286;8.534;2022-11-15T06:58:34;9.60;99.90
13944;DHT22;7044;53.286;8.534;2022-11-15T07:01:02;9.60;99.90
13944;DHT22;7044;53.286;8.534;2022-11-15T07:03:29;9.60;99.90
13944;DHT22;7044;53.286;8.534;2022-11-15T07:05:57;9.60;99.90
13944;DHT22;7044;53.286;8.534;2022-11-15T07:08:26;9.60;99.90
13944;DHT22;7044;53.286;8.534;2022-11-15T07:10:57;9.60;99.90
13944;DHT22;7044;53.286;8.534;2022-11-15T07:13:25;9.70;99.90
13944;DHT22;7044;53.286;8.534;2022-11-15T07:15:52;9.70;99.90
13944;DHT22;7044;53.286;8.534;2022-11-15T07:18:19;9.70;99.90
13944;DHT22;7044;53.286;8.534;2022-11-15T07:20:46;9.80;99.90
13944;DHT22;7044;53.286;8.534;2022-11-15T07:23:12;9.80;99.90
13944;DHT22;7044;53.286;8.534;2022-11-15T07:25:39;9.80;99.90
13944;DHT22;7044;53.286;8.534;2022-11-15T07:28:07;9.80;99.90
13944;DHT22;7044;53.286;8.534;2022-11-15T07:30:34;9.80;99.90
13944;DHT22;7044;53.286;8.534;2022-11-15T07:33:01;9.90;99.90
13944;DHT22;7044;53.286;8.534;2022-11-15T07:35:28;9.90;99.90
13944;DHT22;7044;53.286;8.534;2022-11-15T07:37:57;10.00;99.90
13944;DHT22;7044;53.286;8.534;2022-11-15T07:40:25;10.00;99.90
13944;DHT22;7044;53.286;8.534;2022-11-15T07:42:52;10.10;99.90
13944;DHT22;7044;53.286;8.534;2022-11-15T07:45:20;10.10;99.90
13944;DHT22;7044;53.286;8.534;2022-11-15T07:47:48;10.10;99.90
13944;DHT22;7044;53.286;8.534;2022-11-15T07:50:15;10.10;99.90
13944;DHT22;7044;53.286;8.534;2022-11-15T07:52:42;10.10;99.90
13944;DHT22;7044;53.286;8.534;2022-11-15T07:55:09;10.20;99.90
13944;DHT22;7044;53.286;8.534;2022-11-15T07:57:36;10.20;99.90
13944;DHT22;7044;53.286;8.534;2022-11-15T08:00:04;10.20;99.90
13944;DHT22;7044;53.286;8.534;2022-11-15T08:02:32;10.20;99.90
13944;DHT22;7044;53.286;8.534;2022-11-15T08:04:59;10.30;99.90
13944;DHT22;7044;53.286;8.534;2022-11-15T08:07:29;10.30;99.90
13944;DHT22;7044;53.286;8.534;2022-11-15T08:09:57;10.30;99.90
13944;DHT22;7044;53.286;8.534;2022-11-15T08:12:24;10.40;99.90
13944;DHT22;7044;53.286;8.534;2022-11-15T08:14:51;10.40;99.90
13944;DHT22;7044;53.286;8.534;2022-11-15T08:17:17;10.40;99.90
13944;DHT22;7044;53.286;8.534;2022-11-15T08:19:46;10.40;99.90
13944;DHT22;7044;53.286;8.534;2022-11-15T08:22:13;10.40;99.90
13944;DHT22;7044;53.286;8.534;2022-11-15T08:24:40;10.50;99.90
13944;DHT22;7044;53.286;8.534;2022-11-15T08:27:07;10.50;99.90
13944;DHT22;7044;53.286;8.534;2022-11-15T08:29:40;10.50;99.90
13944;DHT22;7044;53.286;8.534;2022-11-15T08:32:07;10.60;99.90
13944;DHT22;7044;53.286;8.534;2022-11-15T08:34:34;10.70;99.90
13944;DHT22;7044;53.286;8.534;2022-11-15T08:37:02;10.70;99.90
13944;DHT22;7044;53.286;8.534;2022-11-15T08:39:29;10.70;99.90
13944;DHT22;7044;53.286;8.534;2022-11-15T08:41:56;10.80;99.90
13944;DHT22;7044;53.286;8.534;2022-11-15T08:44:23;10.80;99.90
13944;DHT22;7044;53.286;8.534;2022-11-15T08:46:50;10.80;99.90
13944;DHT22;7044;53.286;8.534;2022-11-15T08:49:17;10.80;99.90
13944;DHT22;7044;53.286;8.534;2022-11-15T08:51:44;10.90;99.90
13944;DHT22;7044;53.286;8.534;2022-11-15T08:54:12;10.90;99.90
13944;DHT22;7044;53.286;8.534;2022-11-15T08:56:39;10.90;99.90
13944;DHT22;7044;53.286;8.534;2022-11-15T08:59:06;10.90;99.90
13944;DHT22;7044;53.286;8.534;2022-11-15T09:01:32;10.90;99.90
13944;DHT22;7044;53.286;8.534;2022-11-15T09:03:59;11.00;99.90
13944;DHT22;7044;53.286;8.534;2022-11-15T09:06:26;11.10;99.90
13944;DHT22;7044;53.286;8.534;2022-11-15T09:08:53;11.00;99.90
13944;DHT22;7044;53.286;8.534;2022-11-15T09:11:21;11.10;99.90
13944;DHT22;7044;53.286;8.534;2022-11-15T09:13:48;11.10;99.90
13944;DHT22;7044;53.286;8.534;2022-11-15T09:16:15;11.10;99.90
13944;DHT22;7044;53.286;8.534;2022-11-15T09:18:42;11.20;99.90
13944;DHT22;7044;53.286;8.534;2022-11-15T09:21:09;11.20;99.90
13944;DHT22;7044;53.286;8.534;2022-11-15T09:23:36;11.20;99.90
13944;DHT22;7044;53.286;8.534;2022-11-15T09:26:04;11.20;99.90
13944;DHT22;7044;53.286;8.534;2022-11-15T09:28:32;11.20;99.90
13944;DHT22;7044;53.286;8.534;2022-11-15T09:31:01;11.20;99.90
13944;DHT22;7044;53.286;8.534;2022-11-15T09:33:29;11.30;99.90
13944;DHT22;7044;53.286;8.534;2022-11-15T09:36:00;11.30;99.90
13944;DHT22;7044;53.286;8.534;2022-11-15T09:38:26;11.30;99.90
13944;DHT22;7044;53.286;8.534;2022-11-15T09:43:58;11.40;99.90
13944;DHT22;7044;53.286;8.534;2022-11-15T09:46:37;11.40;99.90
13944;DHT22;7044;53.286;8.534;2022-11-15T09:49:08;11.40;99.90
13944;DHT22;7044;53.286;8.534;2022-11-15T09:51:39;11.40;99.90
13944;DHT22;7044;53.286;8.534;2022-11-15T09:54:20;11.40;99.90
13944;DHT22;7044;53.286;8.534;2022-11-15T09:56:48;11.40;99.90
13944;DHT22;7044;53.286;8.534;2022-11-15T09:59:38;11.40;99.90
13944;DHT22;7044;53.286;8.534;2022-11-15T10:02:19;11.50;99.90
13944;DHT22;7044;53.286;8.534;2022-11-15T10:04:49;11.50;99.90
13944;DHT22;7044;53.286;8.534;2022-11-15T10:07:23;11.60;99.90
13944;DHT22;7044;53.286;8.534;2022-11-15T10:09:54;11.60;99.90
13944;DHT22;7044;53.286;8.534;2022-11-15T10:12:23;11.60;99.90
13944;DHT22;7044;53.286;8.534;2022-11-15T10:14:56;11.70;99.90
13944;DHT22;7044;53.286;8.534;2022-11-15T10:17:39;11.80;99.90
13944;DHT22;7044;53.286;8.534;2022-11-15T10:20:20;11.80;99.90
13944;DHT22;7044;53.286;8.534;2022-11-15T10:22:49;11.90;99.90
13944;DHT22;7044;53.286;8.534;2022-11-15T10:25:19;11.80;99.90
13944;DHT22;7044;53.286;8.534;2022-11-15T10:27:55;11.90;99.90
13944;DHT22;7044;53.286;8.534;2022-11-15T10:30:31;12.00;99.90
13944;DHT22;7044;53.286;8.534;2022-11-15T10:32:58;12.10;99.90
13944;DHT22;7044;53.286;8.534;2022-11-15T10:35:28;12.20;99.90
13944;DHT22;7044;53.286;8.534;2022-11-15T10:38:05;12.20;99.90
13944;DHT22;7044;53.286;8.534;2022-11-15T10:40:33;12.20;99.90
13944;DHT22;7044;53.286;8.534;2022-11-15T10:43:14;12.20;99.90
13944;DHT22;7044;53.286;8.534;2022-11-15T10:45:43;12.20;99.90
13944;DHT22;7044;53.286;8.534;2022-11-15T10:48:24;12.20;99.90
13944;DHT22;7044;53.286;8.534;2022-11-15T10:50:52;12.20;99.90
13944;DHT22;7044;53.286;8.534;2022-11-15T10:53:24;12.20;99.90
13944;DHT22;7044;53.286;8.534;2022-11-15T10:55:55;12.20;99.90
13944;DHT22;7044;53.286;8.534;2022-11-15T10:58:33;12.20;99.90
13944;DHT22;7044;53.286;8.534;2022-11-15T11:01:16;12.20;99.90
13944;DHT22;7044;53.286;8.534;2022-11-15T11:03:44;12.20;99.90
13944;DHT22;7044;53.286;8.534;2022-11-15T11:06:14;12.20;99.90
13944;DHT22;7044;53.286;8.534;2022-11-15T11:08:54;12.30;99.90
13944;DHT22;7044;53.286;8.534;2022-11-15T11:11:21;12.30;99.90
13944;DHT22;7044;53.286;8.534;2022-11-15T11:13:48;12.30;99.90
13944;DHT22;7044;53.286;8.534;2022-11-15T11:16:29;12.30;99.90
13944;DHT22;7044;53.286;8.534;2022-11-15T11:19:04;12.40;99.90
13944;DHT22;7044;53.286;8.534;2022-11-15T11:21:41;12.50;99.90
13944;DHT22;7044;53.286;8.534;2022-11-15T11:24:15;12.60;99.90
13944;DHT22;7044;53.286;8.534;2022-11-15T11:26:53;12.60;99.90
13944;DHT22;7044;53.286;8.534;2022-11-15T11:29:32;12.60;99.90
13944;DHT22;7044;53.286;8.534;2022-11-15T11:32:10;12.60;99.90
13944;DHT22;7044;53.286;8.534;2022-11-15T11:34:53;12.60;99.90
13944;DHT22;7044;53.286;8.534;2022-11-15T11:37:29;12.60;99.90
13944;DHT22;7044;53.286;8.534;2022-11-15T11:40:14;12.60;99.90
13944;DHT22;7044;53.286;8.534;2022-11-15T11:42:47;12.60;99.90
13944;DHT22;7044;53.286;8.534;2022-11-15T11:45:19;12.60;99.90
13944;DHT22;7044;53.286;8.534;2022-11-15T11:48:03;12.60;99.90
13944;DHT22;7044;53.286;8.534;2022-11-15T11:50:37;12.70;99.90
13944;DHT22;7044;53.286;8.534;2022-11-15T11:53:11;12.80;99.90
13944;DHT22;7044;53.286;8.534;2022-11-15T11:55:41;12.70;99.90
13944;DHT22;7044;53.286;8.534;2022-11-15T11:58:14;12.80;99.90
13944;DHT22;7044;53.286;8.534;2022-11-15T12:00:46;12.80;99.90
13944;DHT22;7044;53.286;8.534;2022-11-15T12:03:22;12.80;99.90
13944;DHT22;7044;53.286;8.534;2022-11-15T12:05:54;12.80;99.90
13944;DHT22;7044;53.286;8.534;2022-11-15T12:08:28;12.90;99.90
13944;DHT22;7044;53.286;8.534;2022-11-15T12:11:03;12.90;99.90
13944;DHT22;7044;53.286;8.534;2022-11-15T12:13:33;12.90;99.90
13944;DHT22;7044;53.286;8.534;2022-11-15T12:16:06;12.90;99.90
13944;DHT22;7044;53.286;8.534;2022-11-15T12:18:35;12.90;99.90
13944;DHT22;7044;53.286;8.534;2022-11-15T12:21:06;12.90;99.90
13944;DHT22;7044;53.286;8.534;2022-11-15T12:23:40;12.90;99.90
13944;DHT22;7044;53.286;8.534;2022-11-15T12:26:11;13.00;99.90
13944;DHT22;7044;53.286;8.534;2022-11-15T12:28:46;13.00;99.90
13944;DHT22;7044;53.286;8.534;2022-11-15T12:31:16;13.00;99.90
13944;DHT22;7044;53.286;8.534;2022-11-15T12:33:46;13.20;99.90
13944;DHT22;7044;53.286;8.534;2022-11-15T12:36:33;13.10;99.90
13944;DHT22;7044;53.286;8.534;2022-11-15T12:39:02;13.10;99.90
13944;DHT22;7044;53.286;8.534;2022-11-15T12:41:30;13.10;99.90
13944;DHT22;7044;53.286;8.534;2022-11-15T12:43:58;13.10;99.90
13944;DHT22;7044;53.286;8.534;2022-11-15T12:47:01;13.10;99.90
13944;DHT22;7044;53.286;8.534;2022-11-15T12:49:48;13.10;99.90
13944;DHT22;7044;53.286;8.534;2022-11-15T12:52:15;13.10;99.90
13944;DHT22;7044;53.286;8.534;2022-11-15T12:54:55;13.00;99.90
13944;DHT22;7044;53.286;8.534;2022-11-15T12:57:31;13.00;99.90
13944;DHT22;7044;53.286;8.534;2022-11-15T13:00:00;13.00;99.90
13944;DHT22;7044;53.286;8.534;2022-11-15T13:02:30;13.00;99.90
13944;DHT22;7044;53.286;8.534;2022-11-15T13:08:02;13.00;99.90
13944;DHT22;7044;53.286;8.534;2022-11-15T13:10:31;13.00;99.90
13944;DHT22;7044;53.286;8.534;2022-11-15T13:12:58;13.00;99.90
13944;DHT22;7044;53.286;8.534;2022-11-15T13:15:54;13.10;99.90
13944;DHT22;7044;53.286;8.534;2022-11-15T13:18:38;13.10;99.90
13944;DHT22;7044;53.286;8.534;2022-11-15T13:21:20;13.20;99.90
13944;DHT22;7044;53.286;8.534;2022-11-15T13:24:12;13.20;99.90
13944;DHT22;7044;53.286;8.534;2022-11-15T13:26:39;13.20;99.90
13944;DHT22;7044;53.286;8.534;2022-11-15T13:29:15;13.10;99.90
13944;DHT22;7044;53.286;8.534;2022-11-15T13:31:43;13.00;99.90
13944;DHT22;7044;53.286;8.534;2022-11-15T13:34:24;13.00;99.90
13944;DHT22;7044;53.286;8.534;2022-11-15T13:36:52;12.90;99.90
13944;DHT22;7044;53.286;8.534;2022-11-15T13:39:26;12.90;99.90
13944;DHT22;7044;53.286;8.534;2022-11-15T13:41:54;12.80;99.90
13944;DHT22;7044;53.286;8.534;2022-11-15T13:44:22;12.80;99.90
13944;DHT22;7044;53.286;8.534;2022-11-15T13:47:00;12.70;99.90
13944;DHT22;7044;53.286;8.534;2022-11-15T13:49:29;12.70;99.90
13944;DHT22;7044;53.286;8.534;2022-11-15T13:51:57;12.70;99.90
13944;DHT22;7044;53.286;8.534;2022-11-15T13:54:27;12.70;99.90
13944;DHT22;7044;53.286;8.534;2022-11-15T13:56:59;12.60;99.90
13944;DHT22;7044;53.286;8.534;2022-11-15T13:59:29;12.60;99.90
13944;DHT22;7044;53.286;8.534;2022-11-15T14:01:59;12.60;99.90
13944;DHT22;7044;53.286;8.534;2022-11-15T14:04:28;12.60;99.90
13944;DHT22;7044;53.286;8.534;2022-11-15T14:07:00;12.50;99.90
13944;DHT22;7044;53.286;8.534;2022-11-15T14:09:35;12.50;99.90
13944;DHT22;7044;53.286;8.534;2022-11-15T14:12:25;12.50;99.90
13944;DHT22;7044;53.286;8.534;2022-11-15T14:14:53;12.60;99.90
13944;DHT22;7044;53.286;8.534;2022-11-15T14:17:32;12.60;99.90
13944;DHT22;7044;53.286;8.534;2022-11-15T14:19:59;12.60;99.90
13944;DHT22;7044;53.286;8.534;2022-11-15T14:22:27;12.60;99.90
13944;DHT22;7044;53.286;8.534;2022-11-15T14:25:12;12.60;99.90
13944;DHT22;7044;53.286;8.534;2022-11-15T14:27:40;12.60;99.90
13944;DHT22;7044;53.286;8.534;2022-11-15T14:30:13;12.60;99.90
13944;DHT22;7044;53.286;8.534;2022-11-15T14:32:44;12.60;99.90
13944;DHT22;7044;53.286;8.534;2022-11-15T14:35:14;12.50;99.90
13944;DHT22;7044;53.286;8.534;2022-11-15T14:37:42;12.50;99.90
13944;DHT22;7044;53.286;8.534;2022-11-15T14:40:13;12.40;99.90
13944;DHT22;7044;53.286;8.534;2022-11-15T14:42:40;12.40;99.90
13944;DHT22;7044;53.286;8.534;2022-11-15T14:45:12;12.30;99.90
13944;DHT22;7044;53.286;8.534;2022-11-15T14:47:39;12.30;99.90
13944;DHT22;7044;53.286;8.534;2022-11-15T14:50:10;12.20;99.90
13944;DHT22;7044;53.286;8.534;2022-11-15T14:52:37;12.20;99.90
13944;DHT22;7044;53.286;8.534;2022-11-15T14:55:14;12.10;99.90
13944;DHT22;7044;53.286;8.534;2022-11-15T14:57:43;12.10;99.90
13944;DHT22;7044;53.286;8.534;2022-11-15T15:00:10;12.00;99.90
13944;DHT22;7044;53.286;8.534;2022-11-15T15:02:38;12.00;99.90
13944;DHT22;7044;53.286;8.534;2022-11-15T15:05:13;11.90;99.90
13944;DHT22;7044;53.286;8.534;2022-11-15T15:07:40;11.90;99.90
13944;DHT22;7044;53.286;8.534;2022-11-15T15:10:08;11.80;99.90
13944;DHT22;7044;53.286;8.534;2022-11-15T15:12:36;11.70;99.90
13944;DHT22;7044;53.286;8.534;2022-11-15T15:15:03;11.60;99.90
13944;DHT22;7044;53.286;8.534;2022-11-15T15:17:30;11.60;99.90
13944;DHT22;7044;53.286;8.534;2022-11-15T15:19:57;11.50;99.90
13944;DHT22;7044;53.286;8.534;2022-11-15T15:22:26;11.30;99.90
13944;DHT22;7044;53.286;8.534;2022-11-15T15:24:54;11.30;99.90
13944;DHT22;7044;53.286;8.534;2022-11-15T15:27:21;11.20;99.90
13944;DHT22;7044;53.286;8.534;2022-11-15T15:29:49;11.20;99.90
13944;DHT22;7044;53.286;8.534;2022-11-15T15:32:16;11.10;99.90
13944;DHT22;7044;53.286;8.534;2022-11-15T15:34:43;11.10;99.90
13944;DHT22;7044;53.286;8.534;2022-11-15T15:37:21;11.10;99.90
13944;DHT22;7044;53.286;8.534;2022-11-15T15:39:49;11.20;99.90
13944;DHT22;7044;53.286;8.534;2022-11-15T15:42:17;11.20;99.90
13944;DHT22;7044;53.286;8.534;2022-11-15T15:44:44;11.10;99.90
13944;DHT22;7044;53.286;8.534;2022-11-15T15:47:13;11.10;99.90
13944;DHT22;7044;53.286;8.534;2022-11-15T15:49:41;11.10;99.90
13944;DHT22;7044;53.286;8.534;2022-11-15T15:52:08;11.10;99.90
13944;DHT22;7044;53.286;8.534;2022-11-15T15:54:35;11.10;99.90
13944;DHT22;7044;53.286;8.534;2022-11-15T15:57:02;11.10;99.90
13944;DHT22;7044;53.286;8.534;2022-11-15T15:59:28;11.10;99.90
13944;DHT22;7044;53.286;8.534;2022-11-15T16:01:55;11.00;99.90
13944;DHT22;7044;53.286;8.534;2022-11-15T16:04:24;11.10;99.90
13944;DHT22;7044;53.286;8.534;2022-11-15T16:06:51;11.00;99.90
13944;DHT22;7044;53.286;8.534;2022-11-15T16:09:20;11.00;99.90
13944;DHT22;7044;53.286;8.534;2022-11-15T16:12:08;11.00;99.90
13944;DHT22;7044;53.286;8.534;2022-11-15T16:14:34;11.00;99.90
13944;DHT22;7044;53.286;8.534;2022-11-15T16:17:02;11.00;99.90
13944;DHT22;7044;53.286;8.534;2022-11-15T16:19:31;11.10;99.90
13944;DHT22;7044;53.286;8.534;2022-11-15T16:21:57;10.90;99.90